sensor_id;sensor_type;location;lat;lon;timestamp;temperature;humidity
254;DHT22;590;48.772;8.846;2022-10-16T00:01:38;16.30;99.90
254;DHT22;590;48.772;8.846;2022-10-16T00:04:06;16.30;99.90
254;DHT22;590;48.772;8.846;2022-10-16T00:06:34;16.30;99.90
254;DHT22;590;48.772;8.846;2022-10-16T00:09:02;16.30;99.90
254;DHT22;590;48.772;8.846;2022-10-16T00:11:33;16.30;99.90
254;DHT22;590;48.772;8.846;2022-10-16T00:14:06;16.30;99.90
254;DHT22;590;48.772;8.846;2022-10-16T00:16:35;16.30;99.90
254;DHT22;590;48.772;8.846;2022-10-16T00:19:03;16.30;99.90
254;DHT22;590;48.772;8.846;2022-10-16T00:21:32;16.20;99.90
254;DHT22;590;48.772;8.846;2022-10-16T00:24:01;16.20;99.90
254;DHT22;590;48.772;8.846;2022-10-16T00:26:33;16.20;99.90
254;DHT22;590;48.772;8.846;2022-10-16T00:29:01;16.20;99.90
254;DHT22;590;48.772;8.846;2022-10-16T00:31:31;16.20;99.90
254;DHT22;590;48.772;8.846;2022-10-16T00:33:59;16.20;99.90
254;DHT22;590;48.772;8.846;2022-10-16T00:36:27;16.20;99.90
254;DHT22;590;48.772;8.846;2022-10-16T00:38:58;16.10;99.90
254;DHT22;590;48.772;8.846;2022-10-16T00:41:32;16.10;99.90
254;DHT22;590;48.772;8.846;2022-10-16T00:44:02;16.10;99.90
254;DHT22;590;48.772;8.846;2022-10-16T00:46:34;16.20;99.90
254;DHT22;590;48.772;8.846;2022-10-16T00:49:05;16.20;99.90
254;DHT22;590;48.772;8.846;2022-10-16T00:51:36;16.20;99.90
254;DHT22;590;48.772;8.846;2022-10-16T00:54:08;16.20;99.90
254;DHT22;590;48.772;8.846;2022-10-16T00:56:36;16.20;99.90
254;DHT22;590;48.772;8.846;2022-10-16T00:59:08;16.20;99.90
254;DHT22;590;48.772;8.846;2022-10-16T01:01:39;16.20;99.90
254;DHT22;590;48.772;8.846;2022-10-16T01:04:07;16.30;99.90
254;DHT22;590;48.772;8.846;2022-10-16T01:06:39;16.30;99.90
254;DHT22;590;48.772;8.846;2022-10-16T01:09:14;16.30;99.90
254;DHT22;590;48.772;8.846;2022-10-16T01:11:53;16.30;99.90
254;DHT22;590;48.772;8.846;2022-10-16T01:14:31;16.40;99.90
254;DHT22;590;48.772;8.846;2022-10-16T01:17:05;16.40;99.90
254;DHT22;590;48.772;8.846;2022-10-16T01:19:44;16.40;99.90
254;DHT22;590;48.772;8.846;2022-10-16T01:22:20;16.40;99.90
254;DHT22;590;48.772;8.846;2022-10-16T01:24:50;16.40;99.90
254;DHT22;590;48.772;8.846;2022-10-16T01:27:21;16.40;99.90
254;DHT22;590;48.772;8.846;2022-10-16T01:29:53;16.40;99.90
254;DHT22;590;48.772;8.846;2022-10-16T01:32:28;16.50;99.90
254;DHT22;590;48.772;8.846;2022-10-16T01:35:00;16.50;99.90
254;DHT22;590;48.772;8.846;2022-10-16T01:37:33;16.50;99.90
254;DHT22;590;48.772;8.846;2022-10-16T01:40:06;16.50;99.90
254;DHT22;590;48.772;8.846;2022-10-16T01:42:39;16.50;99.90
254;DHT22;590;48.772;8.846;2022-10-16T01:45:11;16.50;99.90
254;DHT22;590;48.772;8.846;2022-10-16T01:47:40;16.50;99.90
254;DHT22;590;48.772;8.846;2022-10-16T01:50:12;16.40;99.90
254;DHT22;590;48.772;8.846;2022-10-16T01:52:44;16.40;99.90
254;DHT22;590;48.772;8.846;2022-10-16T01:55:16;16.30;99.90
254;DHT22;590;48.772;8.846;2022-10-16T01:57:50;16.30;99.90
254;DHT22;590;48.772;8.846;2022-10-16T02:00:20;16.20;99.90
254;DHT22;590;48.772;8.846;2022-10-16T02:02:52;16.20;99.90
254;DHT22;590;48.772;8.846;2022-10-16T02:05:25;16.20;99.90
254;DHT22;590;48.772;8.846;2022-10-16T02:07:55;16.20;99.90
254;DHT22;590;48.772;8.846;2022-10-16T02:10:26;16.10;99.90
254;DHT22;590;48.772;8.846;2022-10-16T02:13:03;16.10;99.90
254;DHT22;590;48.772;8.846;2022-10-16T02:15:33;16.10;99.90
254;DHT22;590;48.772;8.846;2022-10-16T02:18:01;16.10;99.90
254;DHT22;590;48.772;8.846;2022-10-16T02:20:32;16.00;99.90
254;DHT22;590;48.772;8.846;2022-10-16T02:23:03;16.00;99.90
254;DHT22;590;48.772;8.846;2022-10-16T02:25:34;16.00;99.90
254;DHT22;590;48.772;8.846;2022-10-16T02:28:08;15.90;99.90
254;DHT22;590;48.772;8.846;2022-10-16T02:30:41;15.90;99.90
254;DHT22;590;48.772;8.846;2022-10-16T02:33:11;15.80;99.90
254;DHT22;590;48.772;8.846;2022-10-16T02:35:42;15.80;99.90
254;DHT22;590;48.772;8.846;2022-10-16T02:38:11;15.80;99.90
254;DHT22;590;48.772;8.846;2022-10-16T02:40:40;15.80;99.90
254;DHT22;590;48.772;8.846;2022-10-16T02:43:11;15.80;99.90
254;DHT22;590;48.772;8.846;2022-10-16T02:45:39;15.80;99.90
254;DHT22;590;48.772;8.846;2022-10-16T02:48:07;15.70;99.90
254;DHT22;590;48.772;8.846;2022-10-16T02:50:35;15.70;99.90
254;DHT22;590;48.772;8.846;2022-10-16T02:53:03;15.70;99.90
254;DHT22;590;48.772;8.846;2022-10-16T02:55:31;15.70;99.90
254;DHT22;590;48.772;8.846;2022-10-16T02:57:59;15.70;99.90
254;DHT22;590;48.772;8.846;2022-10-16T03:00:28;15.70;99.90
254;DHT22;590;48.772;8.846;2022-10-16T03:02:56;15.70;99.90
254;DHT22;590;48.772;8.846;2022-10-16T03:05:24;15.60;99.90
254;DHT22;590;48.772;8.846;2022-10-16T03:07:52;15.60;99.90
254;DHT22;590;48.772;8.846;2022-10-16T03:10:20;15.60;99.90
254;DHT22;590;48.772;8.846;2022-10-16T03:12:48;15.60;99.90
254;DHT22;590;48.772;8.846;2022-10-16T03:15:16;15.60;99.90
254;DHT22;590;48.772;8.846;2022-10-16T03:17:45;15.60;99.90
254;DHT22;590;48.772;8.846;2022-10-16T03:20:13;15.50;99.90
254;DHT22;590;48.772;8.846;2022-10-16T03:22:42;15.50;99.90
254;DHT22;590;48.772;8.846;2022-10-16T03:25:10;15.50;99.90
254;DHT22;590;48.772;8.846;2022-10-16T03:27:38;15.50;99.90
254;DHT22;590;48.772;8.846;2022-10-16T03:30:07;15.50;99.90
254;DHT22;590;48.772;8.846;2022-10-16T03:32:36;15.50;99.90
254;DHT22;590;48.772;8.846;2022-10-16T03:35:06;15.50;99.90
254;DHT22;590;48.772;8.846;2022-10-16T03:37:34;15.50;99.90
254;DHT22;590;48.772;8.846;2022-10-16T03:40:03;15.50;99.90
254;DHT22;590;48.772;8.846;2022-10-16T03:42:31;15.50;99.90
254;DHT22;590;48.772;8.846;2022-10-16T03:44:58;15.40;99.90
254;DHT22;590;48.772;8.846;2022-10-16T03:47:26;15.40;99.90
254;DHT22;590;48.772;8.846;2022-10-16T03:49:55;15.40;99.90
254;DHT22;590;48.772;8.846;2022-10-16T03:52:24;15.40;99.90
254;DHT22;590;48.772;8.846;2022-10-16T03:54:52;15.40;99.90
254;DHT22;590;48.772;8.846;2022-10-16T03:57:20;15.40;99.90
254;DHT22;590;48.772;8.846;2022-10-16T03:59:48;15.40;99.90
254;DHT22;590;48.772;8.846;2022-10-16T04:02:16;15.30;99.90
254;DHT22;590;48.772;8.846;2022-10-16T04:04:44;15.30;99.90
254;DHT22;590;48.772;8.846;2022-10-16T04:07:12;15.30;99.90
254;DHT22;590;48.772;8.846;2022-10-16T04:09:41;15.20;99.90
254;DHT22;590;48.772;8.846;2022-10-16T04:12:09;15.10;99.90
254;DHT22;590;48.772;8.846;2022-10-16T04:14:37;15.10;99.90
254;DHT22;590;48.772;8.846;2022-10-16T04:17:05;15.10;99.90
254;DHT22;590;48.772;8.846;2022-10-16T04:19:33;15.10;99.90
254;DHT22;590;48.772;8.846;2022-10-16T04:22:01;15.10;99.90
254;DHT22;590;48.772;8.846;2022-10-16T04:24:29;15.10;99.90
254;DHT22;590;48.772;8.846;2022-10-16T04:26:58;15.10;99.90
254;DHT22;590;48.772;8.846;2022-10-16T04:29:26;15.10;99.90
254;DHT22;590;48.772;8.846;2022-10-16T04:31:54;15.10;99.90
254;DHT22;590;48.772;8.846;2022-10-16T04:34:22;15.10;99.90
254;DHT22;590;48.772;8.846;2022-10-16T04:36:51;15.10;99.90
254;DHT22;590;48.772;8.846;2022-10-16T04:39:19;15.10;99.90
254;DHT22;590;48.772;8.846;2022-10-16T04:41:47;15.10;99.90
254;DHT22;590;48.772;8.846;2022-10-16T04:44:16;15.20;99.90
254;DHT22;590;48.772;8.846;2022-10-16T04:46:44;15.20;99.90
254;DHT22;590;48.772;8.846;2022-10-16T04:49:12;15.20;99.90
254;DHT22;590;48.772;8.846;2022-10-16T04:51:40;15.20;99.90
254;DHT22;590;48.772;8.846;2022-10-16T04:54:08;15.20;99.90
254;DHT22;590;48.772;8.846;2022-10-16T04:56:36;15.20;99.90
254;DHT22;590;48.772;8.846;2022-10-16T04:59:09;15.20;99.90
254;DHT22;590;48.772;8.846;2022-10-16T05:01:39;15.20;99.90
254;DHT22;590;48.772;8.846;2022-10-16T05:04:09;15.20;99.90
254;DHT22;590;48.772;8.846;2022-10-16T05:06:37;15.20;99.90
254;DHT22;590;48.772;8.846;2022-10-16T05:09:06;15.20;99.90
254;DHT22;590;48.772;8.846;2022-10-16T05:11:35;15.20;99.90
254;DHT22;590;48.772;8.846;2022-10-16T05:14:03;15.20;99.90
254;DHT22;590;48.772;8.846;2022-10-16T05:16:31;15.20;99.90
254;DHT22;590;48.772;8.846;2022-10-16T05:19:00;15.20;99.90
254;DHT22;590;48.772;8.846;2022-10-16T05:21:48;15.20;99.90
254;DHT22;590;48.772;8.846;2022-10-16T05:24:16;15.20;99.90
254;DHT22;590;48.772;8.846;2022-10-16T05:26:44;15.20;99.90
254;DHT22;590;48.772;8.846;2022-10-16T05:29:12;15.30;99.90
254;DHT22;590;48.772;8.846;2022-10-16T05:31:40;15.20;99.90
254;DHT22;590;48.772;8.846;2022-10-16T05:34:09;15.20;99.90
254;DHT22;590;48.772;8.846;2022-10-16T05:36:37;15.20;99.90
254;DHT22;590;48.772;8.846;2022-10-16T05:39:05;15.20;99.90
254;DHT22;590;48.772;8.846;2022-10-16T05:41:33;15.20;99.90
254;DHT22;590;48.772;8.846;2022-10-16T05:44:04;15.20;99.90
254;DHT22;590;48.772;8.846;2022-10-16T05:46:32;15.20;99.90
254;DHT22;590;48.772;8.846;2022-10-16T05:49:00;15.20;99.90
254;DHT22;590;48.772;8.846;2022-10-16T05:51:30;15.20;99.90
254;DHT22;590;48.772;8.846;2022-10-16T05:53:58;15.20;99.90
254;DHT22;590;48.772;8.846;2022-10-16T05:56:26;15.30;99.90
254;DHT22;590;48.772;8.846;2022-10-16T05:58:53;15.20;99.90
254;DHT22;590;48.772;8.846;2022-10-16T06:01:21;15.30;99.90
254;DHT22;590;48.772;8.846;2022-10-16T06:03:51;15.30;99.90
254;DHT22;590;48.772;8.846;2022-10-16T06:06:20;15.40;99.90
254;DHT22;590;48.772;8.846;2022-10-16T06:08:50;15.40;99.90
254;DHT22;590;48.772;8.846;2022-10-16T06:11:19;15.40;99.90
254;DHT22;590;48.772;8.846;2022-10-16T06:13:49;15.40;99.90
254;DHT22;590;48.772;8.846;2022-10-16T06:16:17;15.40;99.90
254;DHT22;590;48.772;8.846;2022-10-16T06:18:46;15.40;99.90
254;DHT22;590;48.772;8.846;2022-10-16T06:21:16;15.40;99.90
254;DHT22;590;48.772;8.846;2022-10-16T06:23:45;15.40;99.90
254;DHT22;590;48.772;8.846;2022-10-16T06:26:18;15.40;99.90
254;DHT22;590;48.772;8.846;2022-10-16T06:28:47;15.40;99.90
254;DHT22;590;48.772;8.846;2022-10-16T06:31:15;15.40;99.90
254;DHT22;590;48.772;8.846;2022-10-16T06:33:44;15.40;99.90
254;DHT22;590;48.772;8.846;2022-10-16T06:36:15;15.40;99.90
254;DHT22;590;48.772;8.846;2022-10-16T06:38:44;15.40;99.90
254;DHT22;590;48.772;8.846;2022-10-16T06:41:15;15.50;99.90
254;DHT22;590;48.772;8.846;2022-10-16T06:43:43;15.50;99.90
254;DHT22;590;48.772;8.846;2022-10-16T06:46:13;15.50;99.90
254;DHT22;590;48.772;8.846;2022-10-16T06:48:41;15.50;99.90
254;DHT22;590;48.772;8.846;2022-10-16T06:51:11;15.60;99.90
254;DHT22;590;48.772;8.846;2022-10-16T06:53:41;15.60;99.90
254;DHT22;590;48.772;8.846;2022-10-16T06:56:31;15.70;99.90
254;DHT22;590;48.772;8.846;2022-10-16T06:58:59;15.70;99.90
254;DHT22;590;48.772;8.846;2022-10-16T07:01:28;15.70;99.90
254;DHT22;590;48.772;8.846;2022-10-16T07:03:56;15.80;99.90
254;DHT22;590;48.772;8.846;2022-10-16T07:06:26;15.80;99.90
254;DHT22;590;48.772;8.846;2022-10-16T07:08:54;15.90;99.90
254;DHT22;590;48.772;8.846;2022-10-16T07:11:23;15.90;99.90
254;DHT22;590;48.772;8.846;2022-10-16T07:13:52;16.00;99.90
254;DHT22;590;48.772;8.846;2022-10-16T07:16:23;15.90;99.90
254;DHT22;590;48.772;8.846;2022-10-16T07:18:53;16.00;99.90
254;DHT22;590;48.772;8.846;2022-10-16T07:21:26;16.00;99.90
254;DHT22;590;48.772;8.846;2022-10-16T07:23:56;16.00;99.90
254;DHT22;590;48.772;8.846;2022-10-16T07:26:26;16.00;99.90
254;DHT22;590;48.772;8.846;2022-10-16T07:28:55;16.10;99.90
254;DHT22;590;48.772;8.846;2022-10-16T07:31:25;16.20;99.90
254;DHT22;590;48.772;8.846;2022-10-16T07:33:53;16.30;99.90
254;DHT22;590;48.772;8.846;2022-10-16T07:36:21;16.30;99.90
254;DHT22;590;48.772;8.846;2022-10-16T07:38:49;16.30;99.90
254;DHT22;590;48.772;8.846;2022-10-16T07:41:22;16.30;99.90
254;DHT22;590;48.772;8.846;2022-10-16T07:43:52;16.30;99.90
254;DHT22;590;48.772;8.846;2022-10-16T07:46:22;16.30;99.90
254;DHT22;590;48.772;8.846;2022-10-16T07:48:50;16.40;99.90
254;DHT22;590;48.772;8.846;2022-10-16T07:51:21;16.50;99.90
254;DHT22;590;48.772;8.846;2022-10-16T07:53:49;16.60;99.90
254;DHT22;590;48.772;8.846;2022-10-16T07:56:19;16.70;99.90
254;DHT22;590;48.772;8.846;2022-10-16T07:58:47;16.90;99.90
254;DHT22;590;48.772;8.846;2022-10-16T08:01:17;17.10;99.90
254;DHT22;590;48.772;8.846;2022-10-16T08:03:48;17.40;99.90
254;DHT22;590;48.772;8.846;2022-10-16T08:06:18;17.60;99.90
254;DHT22;590;48.772;8.846;2022-10-16T08:08:54;17.80;99.90
254;DHT22;590;48.772;8.846;2022-10-16T08:11:22;18.00;99.90
254;DHT22;590;48.772;8.846;2022-10-16T08:13:50;18.20;99.90
254;DHT22;590;48.772;8.846;2022-10-16T08:16:18;18.40;99.90
254;DHT22;590;48.772;8.846;2022-10-16T08:18:47;18.50;99.90
254;DHT22;590;48.772;8.846;2022-10-16T08:21:18;18.60;99.90
254;DHT22;590;48.772;8.846;2022-10-16T08:23:47;18.60;99.90
254;DHT22;590;48.772;8.846;2022-10-16T08:26:24;18.70;99.90
254;DHT22;590;48.772;8.846;2022-10-16T08:28:52;18.70;99.90
254;DHT22;590;48.772;8.846;2022-10-16T08:31:20;18.80;99.90
254;DHT22;590;48.772;8.846;2022-10-16T08:33:50;18.80;99.90
254;DHT22;590;48.772;8.846;2022-10-16T08:36:19;19.00;99.90
254;DHT22;590;48.772;8.846;2022-10-16T08:38:48;19.10;99.90
254;DHT22;590;48.772;8.846;2022-10-16T08:41:46;19.20;99.90
254;DHT22;590;48.772;8.846;2022-10-16T08:44:33;19.30;99.90
254;DHT22;590;48.772;8.846;2022-10-16T08:47:10;19.40;99.90
254;DHT22;590;48.772;8.846;2022-10-16T08:49:45;19.40;99.90
254;DHT22;590;48.772;8.846;2022-10-16T08:52:17;19.40;99.90
254;DHT22;590;48.772;8.846;2022-10-16T08:54:48;19.40;99.90
254;DHT22;590;48.772;8.846;2022-10-16T08:57:21;19.50;99.90
254;DHT22;590;48.772;8.846;2022-10-16T08:59:51;19.50;99.20
254;DHT22;590;48.772;8.846;2022-10-16T09:02:30;19.50;98.70
254;DHT22;590;48.772;8.846;2022-10-16T09:05:18;19.60;97.80
254;DHT22;590;48.772;8.846;2022-10-16T09:07:53;19.70;95.90
254;DHT22;590;48.772;8.846;2022-10-16T09:10:33;19.70;95.50
254;DHT22;590;48.772;8.846;2022-10-16T09:13:16;19.80;94.20
254;DHT22;590;48.772;8.846;2022-10-16T09:15:52;19.90;93.00
254;DHT22;590;48.772;8.846;2022-10-16T09:18:24;19.90;92.10
254;DHT22;590;48.772;8.846;2022-10-16T09:21:07;19.90;92.10
254;DHT22;590;48.772;8.846;2022-10-16T09:23:38;19.90;91.60
254;DHT22;590;48.772;8.846;2022-10-16T09:26:10;19.90;91.70
254;DHT22;590;48.772;8.846;2022-10-16T09:28:40;19.90;91.50
254;DHT22;590;48.772;8.846;2022-10-16T09:31:15;19.90;91.20
254;DHT22;590;48.772;8.846;2022-10-16T09:33:49;19.90;91.00
254;DHT22;590;48.772;8.846;2022-10-16T09:36:20;20.00;91.00
254;DHT22;590;48.772;8.846;2022-10-16T09:38:49;20.00;91.00
254;DHT22;590;48.772;8.846;2022-10-16T09:41:18;20.10;90.80
254;DHT22;590;48.772;8.846;2022-10-16T09:43:49;20.20;90.30
254;DHT22;590;48.772;8.846;2022-10-16T09:46:26;20.40;89.10
254;DHT22;590;48.772;8.846;2022-10-16T09:48:57;20.70;87.80
254;DHT22;590;48.772;8.846;2022-10-16T09:51:29;20.90;86.20
254;DHT22;590;48.772;8.846;2022-10-16T09:53:59;21.00;83.60
254;DHT22;590;48.772;8.846;2022-10-16T09:56:29;21.20;81.70
254;DHT22;590;48.772;8.846;2022-10-16T09:59:01;21.20;81.20
254;DHT22;590;48.772;8.846;2022-10-16T10:01:36;21.30;81.90
254;DHT22;590;48.772;8.846;2022-10-16T10:04:05;21.50;81.00
254;DHT22;590;48.772;8.846;2022-10-16T10:06:36;21.70;79.20
254;DHT22;590;48.772;8.846;2022-10-16T10:09:15;21.80;78.70
254;DHT22;590;48.772;8.846;2022-10-16T10:11:49;21.90;76.20
254;DHT22;590;48.772;8.846;2022-10-16T10:14:21;22.00;73.70
254;DHT22;590;48.772;8.846;2022-10-16T10:16:50;22.00;71.10
254;DHT22;590;48.772;8.846;2022-10-16T10:19:20;22.10;71.70
254;DHT22;590;48.772;8.846;2022-10-16T10:21:50;22.10;72.20
254;DHT22;590;48.772;8.846;2022-10-16T10:24:19;22.20;72.80
254;DHT22;590;48.772;8.846;2022-10-16T10:26:54;22.20;72.70
254;DHT22;590;48.772;8.846;2022-10-16T10:29:31;22.20;72.20
254;DHT22;590;48.772;8.846;2022-10-16T10:32:10;22.30;72.00
254;DHT22;590;48.772;8.846;2022-10-16T10:34:54;22.40;71.90
254;DHT22;590;48.772;8.846;2022-10-16T10:37:39;22.50;71.90
254;DHT22;590;48.772;8.846;2022-10-16T10:40:22;22.80;71.30
254;DHT22;590;48.772;8.846;2022-10-16T10:42:56;23.00;69.20
254;DHT22;590;48.772;8.846;2022-10-16T10:45:28;23.20;67.90
254;DHT22;590;48.772;8.846;2022-10-16T10:48:19;23.40;65.90
254;DHT22;590;48.772;8.846;2022-10-16T10:50:53;23.60;65.70
254;DHT22;590;48.772;8.846;2022-10-16T10:53:33;23.70;65.00
254;DHT22;590;48.772;8.846;2022-10-16T10:56:16;23.80;64.20
254;DHT22;590;48.772;8.846;2022-10-16T10:58:57;23.80;61.20
254;DHT22;590;48.772;8.846;2022-10-16T11:01:34;23.80;61.70
254;DHT22;590;48.772;8.846;2022-10-16T11:04:34;23.80;62.20
254;DHT22;590;48.772;8.846;2022-10-16T11:07:10;23.90;60.90
254;DHT22;590;48.772;8.846;2022-10-16T11:09:44;23.80;60.70
254;DHT22;590;48.772;8.846;2022-10-16T11:12:17;23.80;60.70
254;DHT22;590;48.772;8.846;2022-10-16T11:14:49;23.90;61.40
254;DHT22;590;48.772;8.846;2022-10-16T11:17:23;23.90;60.70
254;DHT22;590;48.772;8.846;2022-10-16T11:19:55;23.90;60.80
254;DHT22;590;48.772;8.846;2022-10-16T11:22:29;23.90;60.40
254;DHT22;590;48.772;8.846;2022-10-16T11:25:06;23.90;60.10
254;DHT22;590;48.772;8.846;2022-10-16T11:27:42;23.90;60.20
254;DHT22;590;48.772;8.846;2022-10-16T11:30:15;23.90;59.00
254;DHT22;590;48.772;8.846;2022-10-16T11:32:54;24.00;59.50
254;DHT22;590;48.772;8.846;2022-10-16T11:35:37;24.00;59.50
254;DHT22;590;48.772;8.846;2022-10-16T11:38:12;24.10;58.60
254;DHT22;590;48.772;8.846;2022-10-16T11:40:46;24.20;58.80
254;DHT22;590;48.772;8.846;2022-10-16T11:43:19;24.30;58.90
254;DHT22;590;48.772;8.846;2022-10-16T11:45:51;24.40;56.70
254;DHT22;590;48.772;8.846;2022-10-16T11:48:25;24.40;57.00
254;DHT22;590;48.772;8.846;2022-10-16T11:50:58;24.40;52.60
254;DHT22;590;48.772;8.846;2022-10-16T11:53:39;24.40;53.90
254;DHT22;590;48.772;8.846;2022-10-16T11:56:12;24.50;51.70
254;DHT22;590;48.772;8.846;2022-10-16T11:58:48;24.50;52.40
254;DHT22;590;48.772;8.846;2022-10-16T12:01:22;24.50;53.30
254;DHT22;590;48.772;8.846;2022-10-16T12:04:02;24.50;53.80
254;DHT22;590;48.772;8.846;2022-10-16T12:06:36;24.50;54.80
254;DHT22;590;48.772;8.846;2022-10-16T12:09:05;24.40;54.80
254;DHT22;590;48.772;8.846;2022-10-16T12:11:37;24.40;52.30
254;DHT22;590;48.772;8.846;2022-10-16T12:16:57;24.50;55.20
254;DHT22;590;48.772;8.846;2022-10-16T12:19:28;24.50;53.90
254;DHT22;590;48.772;8.846;2022-10-16T12:21:58;24.60;53.30
254;DHT22;590;48.772;8.846;2022-10-16T12:24:32;24.60;53.70
254;DHT22;590;48.772;8.846;2022-10-16T12:27:02;24.70;54.10
254;DHT22;590;48.772;8.846;2022-10-16T12:29:36;24.70;53.60
254;DHT22;590;48.772;8.846;2022-10-16T12:32:27;24.80;52.90
254;DHT22;590;48.772;8.846;2022-10-16T12:35:18;24.80;51.80
254;DHT22;590;48.772;8.846;2022-10-16T12:37:47;24.70;50.30
254;DHT22;590;48.772;8.846;2022-10-16T12:40:25;24.60;51.00
254;DHT22;590;48.772;8.846;2022-10-16T12:42:55;24.60;51.90
254;DHT22;590;48.772;8.846;2022-10-16T12:45:29;24.60;52.80
254;DHT22;590;48.772;8.846;2022-10-16T12:48:00;24.60;52.40
254;DHT22;590;48.772;8.846;2022-10-16T12:50:34;24.50;51.40
254;DHT22;590;48.772;8.846;2022-10-16T12:53:04;24.60;50.40
254;DHT22;590;48.772;8.846;2022-10-16T12:55:52;24.50;48.50
254;DHT22;590;48.772;8.846;2022-10-16T12:58:39;24.50;49.40
254;DHT22;590;48.772;8.846;2022-10-16T13:01:19;24.50;49.40
254;DHT22;590;48.772;8.846;2022-10-16T13:04:10;24.50;48.20
254;DHT22;590;48.772;8.846;2022-10-16T13:06:46;24.50;47.70
254;DHT22;590;48.772;8.846;2022-10-16T13:09:28;24.40;46.80
254;DHT22;590;48.772;8.846;2022-10-16T13:12:15;24.40;47.10
254;DHT22;590;48.772;8.846;2022-10-16T13:15:11;24.40;43.60
254;DHT22;590;48.772;8.846;2022-10-16T13:17:49;24.40;42.80
254;DHT22;590;48.772;8.846;2022-10-16T13:20:24;24.30;47.10
254;DHT22;590;48.772;8.846;2022-10-16T13:23:02;24.30;51.30
254;DHT22;590;48.772;8.846;2022-10-16T13:25:42;24.20;54.30
254;DHT22;590;48.772;8.846;2022-10-16T13:28:21;24.10;55.30
254;DHT22;590;48.772;8.846;2022-10-16T13:30:53;24.00;59.00
254;DHT22;590;48.772;8.846;2022-10-16T13:33:29;24.00;59.30
254;DHT22;590;48.772;8.846;2022-10-16T13:35:58;24.00;58.90
254;DHT22;590;48.772;8.846;2022-10-16T13:38:27;24.00;59.20
254;DHT22;590;48.772;8.846;2022-10-16T13:40:57;23.90;60.20
254;DHT22;590;48.772;8.846;2022-10-16T13:43:31;23.80;59.90
254;DHT22;590;48.772;8.846;2022-10-16T13:46:03;23.70;60.40
254;DHT22;590;48.772;8.846;2022-10-16T13:48:32;23.60;60.90
254;DHT22;590;48.772;8.846;2022-10-16T13:51:02;23.50;63.40
254;DHT22;590;48.772;8.846;2022-10-16T13:53:32;23.30;63.70
254;DHT22;590;48.772;8.846;2022-10-16T13:56:03;23.20;66.30
254;DHT22;590;48.772;8.846;2022-10-16T13:58:32;23.10;66.60
254;DHT22;590;48.772;8.846;2022-10-16T14:01:02;23.00;68.30
254;DHT22;590;48.772;8.846;2022-10-16T14:03:33;23.00;67.70
254;DHT22;590;48.772;8.846;2022-10-16T14:06:04;23.00;68.70
254;DHT22;590;48.772;8.846;2022-10-16T14:08:35;23.00;69.10
254;DHT22;590;48.772;8.846;2022-10-16T14:11:03;22.90;70.20
254;DHT22;590;48.772;8.846;2022-10-16T14:13:34;22.90;72.10
254;DHT22;590;48.772;8.846;2022-10-16T14:16:08;22.90;71.30
254;DHT22;590;48.772;8.846;2022-10-16T14:18:38;22.90;71.30
254;DHT22;590;48.772;8.846;2022-10-16T14:21:12;22.90;71.70
254;DHT22;590;48.772;8.846;2022-10-16T14:23:42;22.90;71.10
254;DHT22;590;48.772;8.846;2022-10-16T14:26:16;22.90;72.40
254;DHT22;590;48.772;8.846;2022-10-16T14:28:44;22.90;73.50
254;DHT22;590;48.772;8.846;2022-10-16T14:31:29;22.90;74.90
254;DHT22;590;48.772;8.846;2022-10-16T14:33:57;22.90;73.40
254;DHT22;590;48.772;8.846;2022-10-16T14:36:26;22.90;73.40
254;DHT22;590;48.772;8.846;2022-10-16T14:38:59;22.90;73.20
254;DHT22;590;48.772;8.846;2022-10-16T14:41:29;22.90;73.90
254;DHT22;590;48.772;8.846;2022-10-16T14:44:01;22.90;75.10
254;DHT22;590;48.772;8.846;2022-10-16T14:46:33;22.80;75.20
254;DHT22;590;48.772;8.846;2022-10-16T14:49:11;22.70;76.00
254;DHT22;590;48.772;8.846;2022-10-16T14:51:42;22.70;75.00
254;DHT22;590;48.772;8.846;2022-10-16T14:54:12;22.60;74.20
254;DHT22;590;48.772;8.846;2022-10-16T14:56:46;22.60;71.10
254;DHT22;590;48.772;8.846;2022-10-16T14:59:18;22.50;71.80
254;DHT22;590;48.772;8.846;2022-10-16T15:01:48;22.30;72.40
254;DHT22;590;48.772;8.846;2022-10-16T15:04:16;22.30;73.20
254;DHT22;590;48.772;8.846;2022-10-16T15:06:45;22.20;73.70
254;DHT22;590;48.772;8.846;2022-10-16T15:09:13;22.20;74.40
254;DHT22;590;48.772;8.846;2022-10-16T15:11:41;22.10;75.60
254;DHT22;590;48.772;8.846;2022-10-16T15:14:11;22.10;76.70
254;DHT22;590;48.772;8.846;2022-10-16T15:16:41;22.10;77.00
254;DHT22;590;48.772;8.846;2022-10-16T15:19:10;22.10;77.20
254;DHT22;590;48.772;8.846;2022-10-16T15:21:38;22.10;76.00
254;DHT22;590;48.772;8.846;2022-10-16T15:24:11;22.10;76.60
254;DHT22;590;48.772;8.846;2022-10-16T15:26:45;22.10;77.50
254;DHT22;590;48.772;8.846;2022-10-16T15:29:13;22.00;77.90
254;DHT22;590;48.772;8.846;2022-10-16T15:31:41;22.00;80.20
254;DHT22;590;48.772;8.846;2022-10-16T15:34:11;21.90;80.20
254;DHT22;590;48.772;8.846;2022-10-16T15:36:40;21.90;80.00
254;DHT22;590;48.772;8.846;2022-10-16T15:39:13;21.80;79.70
254;DHT22;590;48.772;8.846;2022-10-16T15:41:41;21.70;79.70
254;DHT22;590;48.772;8.846;2022-10-16T15:44:10;21.70;80.90
254;DHT22;590;48.772;8.846;2022-10-16T15:46:38;21.60;81.60
254;DHT22;590;48.772;8.846;2022-10-16T15:49:06;21.60;82.70
254;DHT22;590;48.772;8.846;2022-10-16T15:51:38;21.60;84.20
254;DHT22;590;48.772;8.846;2022-10-16T15:54:06;21.60;85.20
254;DHT22;590;48.772;8.846;2022-10-16T15:56:35;21.60;85.70
254;DHT22;590;48.772;8.846;2022-10-16T15:59:04;21.60;86.40
254;DHT22;590;48.772;8.846;2022-10-16T16:01:33;21.50;89.20
254;DHT22;590;48.772;8.846;2022-10-16T16:04:01;21.50;90.10
254;DHT22;590;48.772;8.846;2022-10-16T16:06:47;21.40;89.80
254;DHT22;590;48.772;8.846;2022-10-16T16:09:15;21.40;89.80
254;DHT22;590;48.772;8.846;2022-10-16T16:11:43;21.30;90.10
254;DHT22;590;48.772;8.846;2022-10-16T16:14:13;21.30;90.50
254;DHT22;590;48.772;8.846;2022-10-16T16:16:41;21.20;90.90
254;DHT22;590;48.772;8.846;2022-10-16T16:19:09;21.10;91.90
254;DHT22;590;48.772;8.846;2022-10-16T16:21:38;21.10;92.60
254;DHT22;590;48.772;8.846;2022-10-16T16:24:07;21.00;92.90
254;DHT22;590;48.772;8.846;2022-10-16T16:26:36;20.90;93.50
254;DHT22;590;48.772;8.846;2022-10-16T16:29:08;20.80;94.50
254;DHT22;590;48.772;8.846;2022-10-16T16:31:36;20.70;96.50
254;DHT22;590;48.772;8.846;2022-10-16T16:34:04;20.60;97.70
254;DHT22;590;48.772;8.846;2022-10-16T16:36:33;20.50;99.40
254;DHT22;590;48.772;8.846;2022-10-16T16:39:01;20.30;99.90
254;DHT22;590;48.772;8.846;2022-10-16T16:41:31;20.20;99.90
254;DHT22;590;48.772;8.846;2022-10-16T16:44:04;20.10;99.90
254;DHT22;590;48.772;8.846;2022-10-16T16:46:33;20.00;99.90
254;DHT22;590;48.772;8.846;2022-10-16T16:49:02;19.90;99.90
254;DHT22;590;48.772;8.846;2022-10-16T16:51:30;19.80;99.90
254;DHT22;590;48.772;8.846;2022-10-16T16:54:04;19.70;99.90
254;DHT22;590;48.772;8.846;2022-10-16T16:56:34;19.60;99.90
254;DHT22;590;48.772;8.846;2022-10-16T16:59:02;19.50;99.90
254;DHT22;590;48.772;8.846;2022-10-16T17:01:31;19.40;99.90
254;DHT22;590;48.772;8.846;2022-10-16T17:03:59;19.30;99.90
254;DHT22;590;48.772;8.846;2022-10-16T17:06:29;19.20;99.90